createdAt,value
2022-09-07T00:04:53.004Z,21.09
2022-09-07T00:09:55.700Z,21.26
2022-09-07T00:14:58.158Z,21.29
2022-09-07T00:20:00.606Z,21.33
2022-09-07T00:25:03.313Z,21.40
2022-09-07T00:30:07.263Z,21.47
2022-09-07T00:35:10.059Z,21.52
2022-09-07T00:40:12.651Z,21.56
2022-09-07T00:45:20.170Z,21.53
2022-09-07T00:50:31.418Z,21.53
2022-09-07T00:55:36.544Z,21.45
2022-09-07T01:00:41.265Z,21.38
2022-09-07T01:05:48.068Z,21.35
2022-09-07T01:10:50.737Z,21.37
2022-09-07T01:16:15.148Z,21.39
2022-09-07T01:21:41.839Z,21.40
2022-09-07T01:27:13.371Z,21.43
2022-09-07T01:32:34.313Z,21.50
2022-09-07T01:37:58.404Z,21.65
2022-09-07T01:43:32.446Z,21.65
2022-09-07T01:48:37.979Z,21.57
2022-09-07T01:53:50.825Z,21.38
2022-09-07T01:58:58.647Z,21.32
2022-09-07T02:04:05.113Z,21.23
2022-09-07T02:09:14.447Z,21.22
2022-09-07T02:14:19.646Z,21.21
2022-09-07T02:19:25.188Z,21.13
2022-09-07T02:24:35.330Z,21.20
2022-09-07T02:29:38.568Z,21.18
2022-09-07T02:34:41.124Z,21.25
2022-09-07T02:39:43.729Z,21.35
2022-09-07T02:44:48.169Z,21.85
2022-09-07T02:50:27.215Z,22.92
2022-09-07T02:55:57.661Z,23.17
2022-09-07T03:01:05.039Z,23.06
2022-09-07T03:06:38.474Z,22.77
2022-09-07T03:11:40.911Z,23.13
2022-09-07T03:16:43.912Z,22.46
2022-09-07T03:21:46.711Z,22.11
2022-09-07T03:26:49.450Z,21.85
2022-09-07T03:31:52.034Z,21.68
2022-09-07T03:36:54.451Z,21.70
2022-09-07T03:41:56.951Z,21.93
2022-09-07T03:46:59.405Z,22.12
2022-09-07T03:52:01.938Z,21.73
2022-09-07T03:57:04.463Z,21.23
2022-09-07T04:02:06.988Z,22.33
2022-09-07T04:07:10.038Z,21.88
2022-09-07T04:12:12.488Z,22.38
2022-09-07T04:17:15.011Z,21.44
2022-09-07T04:22:17.477Z,21.25
2022-09-07T04:27:19.899Z,20.99
2022-09-07T04:32:22.396Z,20.90
2022-09-07T04:37:24.833Z,20.85
2022-09-07T04:42:27.287Z,21.00
2022-09-07T04:47:30.847Z,21.63
2022-09-07T04:52:33.939Z,22.20
2022-09-07T04:57:36.486Z,21.98
2022-09-07T05:02:39.125Z,21.02
2022-09-07T05:07:41.720Z,20.59
2022-09-07T05:12:44.253Z,20.86
2022-09-07T05:17:46.730Z,21.26
2022-09-07T05:22:49.332Z,21.13
2022-09-07T05:27:52.363Z,21.24
2022-09-07T05:32:54.837Z,21.38
2022-09-07T05:37:57.311Z,22.05
2022-09-07T05:43:00.026Z,21.70
2022-09-07T05:48:02.714Z,21.73
2022-09-07T05:53:05.282Z,21.23
2022-09-07T05:58:07.707Z,21.12
2022-09-07T06:03:10.451Z,21.26
2022-09-07T06:08:13.378Z,21.77
2022-09-07T06:13:15.825Z,21.72
2022-09-07T06:18:18.436Z,21.71
2022-09-07T06:23:20.929Z,22.22
2022-09-07T06:28:29.233Z,22.72
2022-09-07T06:33:32.312Z,23.60
2022-09-07T06:38:37.738Z,24.30
2022-09-07T06:43:45.515Z,24.57
2022-09-07T06:48:52.231Z,24.89
2022-09-07T06:59:20.041Z,24.62
2022-09-07T07:04:22.715Z,24.45
2022-09-07T07:09:25.277Z,24.43
2022-09-07T07:14:29.941Z,25.12
2022-09-07T07:19:33.485Z,25.47
2022-09-07T07:24:35.918Z,25.99
2022-09-07T07:29:38.381Z,25.95
2022-09-07T07:34:40.794Z,26.21
2022-09-07T07:50:34.136Z,27.44
2022-09-07T07:55:45.415Z,28.02
2022-09-07T08:00:54.710Z,29.07
2022-09-07T08:06:11.772Z,28.88
2022-09-07T08:11:23.627Z,29.04
2022-09-07T08:16:26.156Z,29.84
2022-09-07T08:21:28.582Z,30.17
2022-09-07T08:26:31.235Z,30.42
2022-09-07T08:31:33.740Z,31.03
2022-09-07T08:36:36.103Z,31.46
2022-09-07T08:42:00.487Z,31.20
2022-09-07T08:47:12.598Z,31.11
2022-09-07T08:52:23.617Z,31.37
2022-09-07T08:57:31.006Z,30.92
2022-09-07T09:02:40.303Z,31.77
2022-09-07T09:07:59.224Z,32.43
2022-09-07T09:13:16.506Z,33.02
2022-09-07T09:18:40.420Z,30.92
2022-09-07T09:23:44.183Z,31.35
2022-09-07T09:28:46.663Z,30.86
2022-09-07T09:34:11.301Z,32.74
2022-09-07T09:39:29.071Z,30.75
2022-09-07T09:44:38.359Z,29.34
2022-09-07T09:49:41.159Z,28.52
2022-09-07T09:54:48.694Z,28.15
2022-09-07T10:00:07.045Z,30.00
2022-09-07T10:05:28.982Z,30.57
2022-09-07T10:10:31.592Z,28.87
2022-09-07T10:15:41.255Z,28.19
2022-09-07T10:20:43.986Z,30.84
2022-09-07T10:25:47.578Z,28.63
2022-09-07T10:30:59.274Z,27.87
2022-09-07T10:36:10.706Z,27.72
2022-09-07T10:41:13.474Z,27.67
2022-09-07T10:52:02.011Z,27.02
2022-09-07T10:57:16.162Z,26.70
2022-09-07T11:02:29.929Z,26.64
2022-09-07T11:07:38.251Z,26.64
2022-09-07T11:12:44.717Z,31.72
2022-09-07T11:17:55.173Z,34.43
2022-09-07T11:23:24.030Z,35.57
2022-09-07T11:28:35.946Z,32.94
2022-09-07T11:39:35.516Z,37.87
2022-09-07T11:44:46.764Z,34.78
2022-09-07T11:49:58.514Z,35.84
2022-09-07T11:55:10.713Z,36.43
2022-09-07T12:00:20.188Z,31.73
2022-09-07T12:05:50.080Z,30.21
2022-09-07T12:11:27.918Z,30.18
2022-09-07T12:16:49.146Z,28.15
2022-09-07T12:21:54.269Z,28.06
2022-09-07T12:26:59.119Z,27.54
2022-09-07T12:37:39.333Z,27.77
2022-09-07T12:42:42.087Z,27.90
2022-09-07T12:47:56.237Z,28.28
2022-09-07T12:53:13.810Z,28.16
2022-09-07T12:58:39.786Z,29.89
2022-09-07T13:04:31.475Z,28.80
2022-09-07T13:09:34.965Z,28.64
2022-09-07T13:14:38.688Z,28.62
2022-09-07T13:19:46.840Z,29.34
2022-09-07T13:24:52.806Z,33.60
2022-09-07T13:30:14.021Z,36.92
2022-09-07T13:35:25.083Z,33.66
2022-09-07T13:40:57.257Z,33.21
2022-09-07T13:46:02.697Z,31.36
2022-09-07T13:51:31.814Z,33.32
2022-09-07T13:56:53.193Z,36.19
2022-09-07T14:01:57.260Z,35.49
2022-09-07T14:07:14.422Z,36.01
2022-09-07T14:12:20.227Z,35.29
2022-09-07T14:17:22.780Z,35.01
2022-09-07T14:22:33.161Z,32.32
2022-09-07T14:27:36.544Z,34.42
2022-09-07T14:32:39.038Z,33.30
2022-09-07T14:37:41.842Z,31.78
2022-09-07T14:42:44.928Z,30.84
2022-09-07T14:47:49.719Z,29.85
2022-09-07T14:58:17.125Z,29.43
2022-09-07T15:03:30.832Z,28.83
2022-09-07T15:08:41.168Z,29.74
2022-09-07T15:13:45.509Z,28.99
2022-09-07T15:19:16.792Z,28.99
2022-09-07T15:24:19.148Z,28.38
2022-09-07T15:29:24.141Z,28.14
2022-09-07T15:34:26.835Z,27.85
2022-09-07T15:39:30.228Z,27.50
2022-09-07T15:44:32.887Z,27.26
2022-09-07T15:49:35.309Z,26.97
2022-09-07T15:54:39.807Z,26.95
2022-09-07T15:59:42.350Z,26.88
2022-09-07T16:04:44.859Z,26.84
2022-09-07T16:09:47.855Z,27.00
2022-09-07T16:14:56.398Z,26.89
2022-09-07T16:20:02.119Z,26.87
2022-09-07T16:25:04.942Z,26.58
2022-09-07T16:30:07.886Z,26.52
2022-09-07T16:35:10.343Z,26.45
2022-09-07T16:40:13.100Z,26.42
2022-09-07T16:50:37.940Z,26.43
2022-09-07T16:55:40.325Z,26.29
2022-09-07T17:00:43.132Z,26.28
2022-09-07T17:05:45.539Z,26.30
2022-09-07T17:10:48.185Z,26.39
2022-09-07T17:15:50.563Z,26.37
2022-09-07T17:20:58.481Z,26.45
2022-09-07T17:26:11.226Z,26.44
2022-09-07T17:36:42.769Z,26.54
2022-09-07T17:41:46.718Z,26.49
2022-09-07T17:46:49.219Z,26.60
2022-09-07T17:51:51.589Z,26.63
2022-09-07T17:56:54.184Z,26.67
2022-09-07T18:01:56.971Z,26.77
2022-09-07T18:06:59.411Z,26.71
2022-09-07T18:12:01.908Z,26.56
2022-09-07T18:17:05.371Z,26.41
2022-09-07T18:22:08.755Z,26.26
2022-09-07T18:27:11.163Z,26.14
2022-09-07T18:32:13.611Z,26.13
2022-09-07T18:37:16.213Z,25.90
2022-09-07T18:42:18.689Z,25.82
2022-09-07T18:47:27.517Z,25.86
2022-09-07T18:57:53.538Z,25.36
2022-09-07T19:02:55.986Z,25.77
2022-09-07T19:07:59.670Z,25.96
2022-09-07T19:13:02.435Z,25.89
2022-09-07T19:18:05.730Z,25.88
2022-09-07T19:23:08.609Z,25.93
2022-09-07T19:28:10.999Z,25.82
2022-09-07T19:33:15.528Z,25.11
2022-09-07T19:38:18.505Z,24.32
2022-09-07T19:43:20.871Z,24.62
2022-09-07T19:48:23.316Z,24.39
2022-09-07T19:53:25.827Z,23.70
2022-09-07T19:58:28.278Z,23.27
2022-09-07T20:03:30.775Z,23.40
2022-09-07T20:08:33.218Z,22.93
2022-09-07T20:13:37.672Z,23.06
2022-09-07T20:18:40.122Z,22.63
2022-09-07T20:23:43.283Z,22.37
2022-09-07T20:28:46.231Z,22.63
2022-09-07T20:33:50.153Z,22.65
2022-09-07T20:38:56.732Z,22.41
2022-09-07T20:44:01.349Z,22.90
2022-09-07T20:49:04.873Z,22.51
2022-09-07T20:54:07.348Z,23.32
2022-09-07T20:59:09.937Z,24.38
2022-09-07T21:04:12.351Z,24.62
2022-09-07T21:09:14.708Z,24.67
2022-09-07T21:14:17.851Z,24.44
2022-09-07T21:19:20.336Z,24.03
2022-09-07T21:24:23.653Z,23.04
2022-09-07T21:29:26.661Z,22.53
2022-09-07T21:34:29.321Z,22.26
2022-09-07T21:39:31.716Z,22.04
2022-09-07T21:44:34.114Z,22.02
2022-09-07T21:49:36.628Z,22.20
2022-09-07T21:54:39.041Z,22.30
2022-09-07T21:59:41.396Z,22.31
2022-09-07T22:04:43.749Z,22.28
2022-09-07T22:09:46.549Z,22.61
2022-09-07T22:14:49.188Z,22.86
2022-09-07T22:19:51.532Z,22.28
2022-09-07T22:24:54.023Z,21.80
2022-09-07T22:29:56.381Z,21.73
2022-09-07T22:34:58.816Z,22.00
2022-09-07T22:40:02.259Z,21.96
2022-09-07T22:45:05.938Z,21.61
2022-09-07T22:50:08.775Z,21.62
2022-09-07T23:00:15.143Z,21.60
2022-09-07T23:05:17.488Z,22.21
2022-09-07T23:10:19.818Z,21.77
2022-09-07T23:15:22.257Z,21.19
2022-09-07T23:20:25.749Z,20.91
2022-09-07T23:25:28.438Z,20.73
2022-09-07T23:30:31.302Z,20.71
2022-09-07T23:35:33.778Z,20.78
2022-09-07T23:40:36.258Z,20.92
2022-09-07T23:45:38.648Z,21.20
2022-09-07T23:50:42.708Z,21.51
2022-09-07T23:55:46.677Z,21.39
